Time;durP1;ratioP1;P1;durP2;ratioP2;P2;SDS_P1;SDS_P2;PMS_P1;PMS_P2;Temp;Humidity;BMP_temperature;BMP_pressure;BME280_temperature;BME280_humidity;BME280_pressure;Samples;Min_cycle;Max_cycle;Signal;HPM_P1;HPM_P2
2022/12/14 00:01:17;;;;;;;29.27;16.02;;;0.60;99.90;;;;;;5030594;28;20026;-51
2022/12/14 00:03:43;;;;;;;32.50;16.50;;;0.60;99.90;;;;;;5025000;28;20025;-48
2022/12/14 00:06:14;;;;;;;30.25;15.50;;;0.60;99.90;;;;;;5030388;28;20029;-52
2022/12/14 00:08:41;;;;;;;30.75;15.60;;;0.50;99.90;;;;;;5030405;28;20515;-42
2022/12/14 00:11:07;;;;;;;26.48;15.27;;;0.50;99.90;;;;;;5030670;28;20025;-50
2022/12/14 00:13:33;;;;;;;25.58;15.43;;;0.50;99.90;;;;;;5023019;28;20036;-46
2022/12/14 00:16:06;;;;;;;28.50;14.90;;;0.50;99.90;;;;;;5030257;28;20064;-58
2022/12/14 00:18:32;;;;;;;29.08;14.80;;;0.50;99.90;;;;;;5030337;28;20388;-41
2022/12/14 00:21:10;;;;;;;33.35;16.30;;;0.50;99.90;;;;;;5028844;28;20025;-41
2022/12/14 00:23:36;;;;;;;29.70;15.38;;;0.50;99.90;;;;;;5018290;28;20028;-40
2022/12/14 00:26:07;;;;;;;28.67;16.23;;;0.60;99.90;;;;;;5029397;28;20472;-46
2022/12/14 00:28:32;;;;;;;27.63;14.68;;;0.60;99.90;;;;;;5030120;28;20041;-43
2022/12/14 00:30:58;;;;;;;28.20;14.23;;;0.60;99.90;;;;;;5033432;28;20022;-40
2022/12/14 00:33:24;;;;;;;27.73;15.13;;;0.60;99.90;;;;;;5024149;28;20362;-44
2022/12/14 00:35:49;;;;;;;26.55;14.20;;;0.50;99.90;;;;;;5029313;28;20026;-43
2022/12/14 00:38:15;;;;;;;28.30;14.95;;;0.50;99.90;;;;;;5033657;28;20031;-40
2022/12/14 00:40:41;;;;;;;26.23;13.93;;;0.50;99.90;;;;;;5032351;28;20033;-41
2022/12/14 00:43:07;;;;;;;26.52;15.25;;;0.50;99.90;;;;;;5032827;28;20452;-43
2022/12/14 00:45:32;;;;;;;28.65;14.85;;;0.50;99.90;;;;;;5033517;28;20021;-42
2022/12/14 00:47:58;;;;;;;29.83;14.63;;;0.50;99.90;;;;;;5033322;28;20136;-40
2022/12/14 00:50:24;;;;;;;28.77;14.50;;;0.50;99.90;;;;;;5033831;28;20112;-41
2022/12/14 00:52:50;;;;;;;27.92;14.45;;;0.50;99.90;;;;;;5030860;28;20045;-45
2022/12/14 00:55:15;;;;;;;31.58;14.82;;;0.50;99.90;;;;;;5033412;28;20068;-45
2022/12/14 00:57:41;;;;;;;30.38;14.65;;;0.50;99.90;;;;;;5033381;28;20432;-40
2022/12/14 01:00:07;;;;;;;27.02;14.82;;;0.50;99.90;;;;;;5033452;28;20032;-42
2022/12/14 01:02:33;;;;;;;27.27;14.00;;;0.50;99.90;;;;;;5031316;28;20109;-42
2022/12/14 01:04:58;;;;;;;26.00;13.68;;;0.50;99.90;;;;;;5031006;28;20116;-40
2022/12/14 01:07:24;;;;;;;26.40;13.85;;;0.60;99.90;;;;;;5033162;28;20408;-43
2022/12/14 01:09:49;;;;;;;25.10;13.02;;;0.50;99.90;;;;;;5032893;28;20056;-40
2022/12/14 01:12:15;;;;;;;29.85;13.98;;;0.50;99.90;;;;;;5023581;28;20053;-43
2022/12/14 01:14:41;;;;;;;26.63;13.27;;;0.60;99.90;;;;;;5033211;28;20021;-41
2022/12/14 01:17:06;;;;;;;28.38;13.88;;;0.60;99.90;;;;;;5032352;28;20500;-44
2022/12/14 01:19:33;;;;;;;31.05;14.95;;;0.60;99.90;;;;;;5033035;28;20040;-47
2022/12/14 01:21:59;;;;;;;28.90;13.65;;;0.60;99.90;;;;;;5031320;28;20033;-41
2022/12/14 01:24:25;;;;;;;25.60;13.15;;;0.60;99.90;;;;;;5032788;28;20507;-44
2022/12/14 01:26:51;;;;;;;30.08;14.63;;;0.60;99.90;;;;;;5032862;28;20022;-39
2022/12/14 01:29:16;;;;;;;27.13;14.10;;;0.60;99.90;;;;;;5032692;28;20036;-49
2022/12/14 01:31:42;;;;;;;24.52;12.98;;;0.60;99.90;;;;;;5032782;28;20026;-41
2022/12/14 01:34:08;;;;;;;25.08;13.23;;;0.70;99.90;;;;;;5032559;28;20435;-44
2022/12/14 01:36:35;;;;;;;24.27;13.25;;;0.60;99.90;;;;;;5032829;28;20101;-44
2022/12/14 01:39:08;;;;;;;23.88;12.60;;;0.70;99.90;;;;;;5032525;28;20475;-41
2022/12/14 01:41:52;;;;;;;25.85;13.77;;;0.60;99.90;;;;;;5030450;28;20067;-46
2022/12/14 01:44:17;;;;;;;31.92;13.60;;;0.60;99.90;;;;;;5031917;28;20480;-43
2022/12/14 01:47:09;;;;;;;25.17;13.30;;;0.50;99.90;;;;;;5032491;28;20024;-42
2022/12/14 01:49:54;;;;;;;26.15;13.73;;;0.50;99.90;;;;;;5032211;28;20041;-42
2022/12/14 01:52:39;;;;;;;23.27;12.27;;;0.40;99.90;;;;;;5023583;28;20103;-41
2022/12/14 01:55:21;;;;;;;23.70;13.52;;;0.40;99.90;;;;;;5032187;28;20069;-42
2022/12/14 01:58:10;;;;;;;28.75;13.80;;;0.40;99.90;;;;;;5024079;28;20469;-44
2022/12/14 02:00:37;;;;;;;25.25;13.15;;;0.40;99.90;;;;;;5032094;28;20029;-48
2022/12/14 02:03:15;;;;;;;24.90;13.10;;;0.50;99.90;;;;;;5023795;28;20442;-47
2022/12/14 02:05:49;;;;;;;25.98;14.32;;;0.50;99.90;;;;;;5032000;28;20064;-42
2022/12/14 02:08:17;;;;;;;24.30;13.48;;;0.50;99.90;;;;;;5032000;28;20045;-41
2022/12/14 02:10:44;;;;;;;25.10;12.57;;;0.50;99.90;;;;;;5031539;28;20114;-41
2022/12/14 02:13:15;;;;;;;26.20;13.48;;;0.50;99.90;;;;;;5026880;28;20496;-42
2022/12/14 02:15:41;;;;;;;24.35;12.90;;;0.50;99.90;;;;;;5031774;28;20472;-53
2022/12/14 02:18:13;;;;;;;25.17;13.35;;;0.50;99.90;;;;;;5032131;28;20108;-49
2022/12/14 02:20:57;;;;;;;26.92;13.75;;;0.50;99.90;;;;;;5031908;28;20063;-45
2022/12/14 02:23:40;;;;;;;26.58;13.13;;;0.50;99.90;;;;;;5031818;28;20033;-44
2022/12/14 02:26:32;;;;;;;26.75;14.13;;;0.50;99.90;;;;;;5031749;28;20104;-52
2022/12/14 02:29:23;;;;;;;30.55;14.30;;;0.50;99.90;;;;;;5031649;28;20042;-42
2022/12/14 02:32:09;;;;;;;24.25;13.00;;;0.40;99.90;;;;;;5027048;28;20437;-41
2022/12/14 02:34:53;;;;;;;29.65;14.02;;;0.40;99.90;;;;;;5031470;28;20048;-47
2022/12/14 02:37:33;;;;;;;24.83;13.82;;;0.40;99.90;;;;;;5031408;28;20107;-42
2022/12/14 02:40:02;;;;;;;27.38;14.13;;;0.40;99.90;;;;;;5031506;28;20052;-41
2022/12/14 02:43:12;;;;;;;27.08;14.80;;;0.40;99.90;;;;;;5022167;28;20026;-49
2022/12/14 02:45:53;;;;;;;26.73;13.88;;;0.40;99.90;;;;;;5031567;28;20022;-43
2022/12/14 02:48:24;;;;;;;24.67;13.15;;;0.40;99.90;;;;;;5029811;28;20061;-42
2022/12/14 02:51:02;;;;;;;25.40;13.20;;;0.40;99.90;;;;;;5031223;28;20018;-50
2022/12/14 02:53:37;;;;;;;25.60;13.55;;;0.40;99.90;;;;;;5019922;28;20029;-46
2022/12/14 02:56:08;;;;;;;24.15;13.60;;;0.40;99.90;;;;;;5029814;28;20037;-43
2022/12/14 02:58:42;;;;;;;25.98;14.70;;;0.40;99.90;;;;;;5031232;28;20098;-41
2022/12/14 03:01:14;;;;;;;29.30;14.13;;;0.50;99.90;;;;;;5029841;28;20025;-42
2022/12/14 03:03:40;;;;;;;26.20;14.38;;;0.50;99.90;;;;;;5019283;28;20337;-45
2022/12/14 03:06:25;;;;;;;30.35;14.85;;;0.50;99.90;;;;;;5031197;28;20025;-44
2022/12/14 03:08:57;;;;;;;28.35;13.43;;;0.50;99.90;;;;;;5033868;28;20057;-51
2022/12/14 03:11:37;;;;;;;29.50;14.18;;;0.50;99.90;;;;;;5022604;28;20029;-46
2022/12/14 03:14:16;;;;;;;28.98;13.75;;;0.50;99.90;;;;;;5014486;28;20487;-43
2022/12/14 03:16:45;;;;;;;27.63;13.45;;;0.50;99.90;;;;;;5014149;28;20029;-45
2022/12/14 03:19:27;;;;;;;28.45;13.95;;;0.50;99.90;;;;;;5019924;28;20026;-40
2022/12/14 03:21:57;;;;;;;26.48;12.82;;;0.50;99.90;;;;;;5010521;28;20026;-41
2022/12/14 03:24:29;;;;;;;29.25;13.60;;;0.60;99.90;;;;;;5013127;28;20067;-41
2022/12/14 03:27:00;;;;;;;31.92;14.20;;;0.60;99.90;;;;;;5012941;28;20029;-41
2022/12/14 03:29:37;;;;;;;27.35;14.48;;;0.50;99.90;;;;;;5014412;28;20059;-40
2022/12/14 03:32:12;;;;;;;25.92;14.02;;;0.60;99.90;;;;;;5014240;28;20037;-42
2022/12/14 03:34:54;;;;;;;26.23;13.43;;;0.60;99.90;;;;;;5014259;28;20030;-41
2022/12/14 03:37:38;;;;;;;23.83;13.13;;;0.50;99.90;;;;;;5012272;28;20121;-40
2022/12/14 03:40:08;;;;;;;22.98;12.48;;;0.50;99.90;;;;;;5010437;28;20110;-42
2022/12/14 03:42:38;;;;;;;22.58;13.30;;;0.50;99.90;;;;;;5011446;28;20056;-41
2022/12/14 03:45:25;;;;;;;24.38;13.35;;;0.50;99.90;;;;;;5012943;28;20042;-41
2022/12/14 03:48:07;;;;;;;25.55;14.15;;;0.50;99.90;;;;;;5030030;28;20029;-42
2022/12/14 03:50:42;;;;;;;24.83;13.52;;;0.40;99.90;;;;;;5030618;28;20029;-42
2022/12/14 03:53:18;;;;;;;28.40;15.10;;;0.30;99.90;;;;;;5017609;28;20029;-49
2022/12/14 03:55:55;;;;;;;26.92;13.85;;;0.20;99.90;;;;;;5019296;28;20208;-53
2022/12/14 03:58:32;;;;;;;28.50;14.43;;;0.10;99.90;;;;;;5011043;28;20045;-49
2022/12/14 04:01:10;;;;;;;25.40;14.55;;;0.00;99.90;;;;;;5010734;28;20473;-50
2022/12/14 04:03:52;;;;;;;24.90;13.02;;;0.00;99.90;;;;;;5018270;28;20032;-45
2022/12/14 04:06:39;;;;;;;27.08;12.77;;;-0.10;99.90;;;;;;5024075;28;20014;-44
2022/12/14 04:09:10;;;;;;;25.70;12.48;;;-0.20;99.90;;;;;;5026055;28;20056;-42
2022/12/14 04:20:58;;;;;;;25.83;12.60;;;-0.30;99.90;;;;;;5032090;28;20078;-41
2022/12/14 04:26:22;;;;;;;23.30;13.13;;;-0.30;99.90;;;;;;5032399;28;20040;-44
2022/12/14 04:31:53;;;;;;;27.02;13.60;;;-0.50;99.90;;;;;;5033958;28;20095;-43
2022/12/14 04:34:21;;;;;;;28.70;14.03;;;-0.50;99.90;;;;;;5021697;28;20560;-43
2022/12/14 04:37:01;;;;;;;27.17;14.15;;;-0.60;99.90;;;;;;5033851;28;20283;-43
2022/12/14 04:39:38;;;;;;;28.60;14.60;;;-0.60;99.90;;;;;;5022082;28;20517;-41
2022/12/14 04:42:06;;;;;;;27.08;13.43;;;-0.60;99.90;;;;;;5031966;28;20108;-43
2022/12/14 04:44:38;;;;;;;25.52;13.30;;;-0.60;99.90;;;;;;5033604;28;20026;-45
2022/12/14 04:47:09;;;;;;;29.23;14.93;;;-0.60;99.90;;;;;;5033534;28;20040;-42
2022/12/14 04:49:50;;;;;;;28.33;15.05;;;-0.70;99.90;;;;;;5033679;28;20061;-45
2022/12/14 04:52:51;;;;;;;30.27;13.73;;;-0.70;99.90;;;;;;5030002;28;20021;-50
2022/12/14 04:55:34;;;;;;;30.58;14.45;;;-0.70;99.90;;;;;;5021439;28;20483;-45
2022/12/14 04:58:16;;;;;;;31.35;15.32;;;-0.70;99.90;;;;;;5033357;28;20048;-48
2022/12/14 05:01:05;;;;;;;28.90;16.38;;;-0.70;99.90;;;;;;5033164;28;20542;-41
2022/12/14 05:03:34;;;;;;;31.13;15.80;;;-0.70;99.90;;;;;;5029611;28;20040;-40
2022/12/14 05:06:06;;;;;;;28.35;15.52;;;-0.80;99.90;;;;;;5033136;28;20480;-39
2022/12/14 05:08:38;;;;;;;30.02;16.50;;;-0.70;99.90;;;;;;5033047;28;20196;-39
2022/12/14 05:11:38;;;;;;;31.48;16.88;;;-0.60;99.90;;;;;;5033459;28;20026;-50
2022/12/14 05:14:11;;;;;;;34.85;17.75;;;-0.60;99.90;;;;;;5030673;28;20022;-51
2022/12/14 05:16:37;;;;;;;35.42;16.10;;;-0.60;99.90;;;;;;5031718;28;20052;-43
2022/12/14 05:19:08;;;;;;;33.15;17.13;;;-0.60;99.90;;;;;;5033044;28;20457;-42
2022/12/14 05:21:46;;;;;;;34.70;16.38;;;-0.60;99.90;;;;;;5033149;28;20025;-47
2022/12/14 05:24:11;;;;;;;30.92;16.27;;;-0.60;99.90;;;;;;5028077;28;20087;-47
2022/12/14 05:26:37;;;;;;;32.70;16.85;;;-0.60;99.90;;;;;;5032255;28;20029;-41
2022/12/14 05:29:03;;;;;;;34.97;16.67;;;-0.60;99.90;;;;;;5021475;28;20025;-47
2022/12/14 05:31:29;;;;;;;29.23;15.75;;;-0.60;99.90;;;;;;5032929;28;20021;-43
2022/12/14 05:33:54;;;;;;;29.92;15.95;;;-0.60;99.90;;;;;;5026406;28;20033;-43
2022/12/14 05:36:20;;;;;;;33.80;16.58;;;-0.60;99.90;;;;;;5032804;28;20030;-51
2022/12/14 05:38:46;;;;;;;27.10;15.50;;;-0.60;99.90;;;;;;5032441;28;20074;-42
2022/12/14 05:41:12;;;;;;;30.88;16.40;;;-0.60;99.90;;;;;;5032718;28;20129;-49
2022/12/14 05:43:37;;;;;;;38.70;19.95;;;-0.50;99.90;;;;;;5024337;28;20034;-51
2022/12/14 05:46:04;;;;;;;40.38;21.80;;;-0.50;99.90;;;;;;5032590;28;20080;-52
2022/12/14 05:48:30;;;;;;;45.72;26.45;;;-0.50;99.90;;;;;;5032359;28;20034;-53
2022/12/14 05:51:10;;;;;;;40.45;22.10;;;-0.50;99.90;;;;;;5032345;28;20021;-49
2022/12/14 05:53:37;;;;;;;38.97;21.15;;;-0.50;99.90;;;;;;5022609;28;20108;-47
2022/12/14 05:56:05;;;;;;;39.20;20.92;;;-0.40;99.90;;;;;;5032283;28;20047;-49
2022/12/14 05:58:31;;;;;;;32.95;20.25;;;-0.40;99.90;;;;;;5032262;28;20488;-52
2022/12/14 06:01:02;;;;;;;37.33;20.60;;;-0.30;99.90;;;;;;5032135;28;20029;-47
2022/12/14 06:03:28;;;;;;;38.10;20.58;;;-0.30;99.90;;;;;;5031888;28;20048;-46
2022/12/14 06:05:59;;;;;;;39.00;22.02;;;-0.30;99.90;;;;;;5032174;28;20029;-42
2022/12/14 06:08:25;;;;;;;40.13;21.67;;;-0.20;99.90;;;;;;5031881;28;20045;-50
2022/12/14 06:10:50;;;;;;;35.13;18.45;;;-0.20;99.90;;;;;;5031880;28;20043;-40
2022/12/14 06:13:16;;;;;;;30.08;15.40;;;-0.20;99.90;;;;;;5025262;28;20034;-47
2022/12/14 06:15:42;;;;;;;35.95;16.27;;;-0.20;99.90;;;;;;5026637;28;20025;-42
2022/12/14 06:18:07;;;;;;;30.65;16.70;;;-0.30;99.90;;;;;;5031759;28;20033;-41
2022/12/14 06:20:33;;;;;;;27.50;16.27;;;-0.30;99.90;;;;;;5031914;28;20509;-40
2022/12/14 06:22:58;;;;;;;32.33;18.10;;;-0.30;99.90;;;;;;5028175;28;20018;-44
2022/12/14 06:25:24;;;;;;;30.98;16.88;;;-0.30;99.90;;;;;;5031621;28;20033;-44
2022/12/14 06:27:53;;;;;;;29.30;16.52;;;-0.30;99.90;;;;;;5031388;28;20041;-42
2022/12/14 06:30:19;;;;;;;28.63;15.20;;;-0.40;99.90;;;;;;5031224;28;20013;-48
2022/12/14 06:32:45;;;;;;;27.15;14.85;;;-0.50;99.90;;;;;;5030902;28;20040;-43
2022/12/14 06:35:10;;;;;;;30.20;14.95;;;-0.60;99.90;;;;;;5030863;28;20025;-41
2022/12/14 06:37:36;;;;;;;25.02;14.43;;;-0.70;99.90;;;;;;5031403;28;20098;-47
2022/12/14 06:40:02;;;;;;;30.33;14.70;;;-0.80;99.90;;;;;;5031044;28;20061;-47
2022/12/14 06:42:27;;;;;;;32.35;16.00;;;-0.90;99.90;;;;;;5031263;28;20465;-40
2022/12/14 06:44:53;;;;;;;35.78;19.17;;;-1.00;99.90;;;;;;5031251;28;20032;-44
2022/12/14 06:47:18;;;;;;;33.15;18.85;;;-1.00;99.90;;;;;;5029458;28;20072;-41
2022/12/14 06:49:44;;;;;;;31.83;17.77;;;-1.00;99.90;;;;;;5030872;28;20025;-44
2022/12/14 06:52:10;;;;;;;34.67;17.63;;;-1.00;99.90;;;;;;5028203;28;20100;-42
2022/12/14 06:54:35;;;;;;;31.95;17.30;;;-1.00;99.90;;;;;;5032169;28;20018;-43
2022/12/14 06:57:01;;;;;;;29.73;16.35;;;-1.00;99.90;;;;;;5025980;28;20030;-43
2022/12/14 06:59:27;;;;;;;29.25;14.95;;;-1.00;99.90;;;;;;5030736;28;20064;-47
2022/12/14 07:01:52;;;;;;;26.40;14.05;;;-1.00;99.90;;;;;;5030727;28;20030;-47
2022/12/14 07:04:20;;;;;;;26.42;14.80;;;-1.00;99.90;;;;;;5028983;28;20595;-41
2022/12/14 07:06:45;;;;;;;26.85;13.80;;;-1.00;99.90;;;;;;5030458;28;20049;-47
2022/12/14 07:09:13;;;;;;;31.80;15.98;;;-1.00;99.90;;;;;;5030608;28;20045;-45
2022/12/14 07:11:39;;;;;;;25.95;14.55;;;-1.00;99.90;;;;;;5030866;28;20132;-49
2022/12/14 07:14:06;;;;;;;28.90;16.50;;;-1.00;99.90;;;;;;5030081;28;20025;-43
2022/12/14 07:16:33;;;;;;;27.58;16.52;;;-1.00;99.90;;;;;;5026159;28;20026;-40
2022/12/14 07:18:59;;;;;;;32.80;17.05;;;-1.00;99.90;;;;;;5030914;28;20026;-43
2022/12/14 07:21:25;;;;;;;30.30;16.17;;;-1.00;99.90;;;;;;5030578;28;20036;-44
2022/12/14 07:23:52;;;;;;;30.02;16.35;;;-1.10;99.90;;;;;;5025746;28;20384;-40
2022/12/14 07:26:21;;;;;;;27.63;15.48;;;-1.10;99.90;;;;;;5029997;28;20030;-42
2022/12/14 07:28:46;;;;;;;30.98;16.88;;;-1.10;99.90;;;;;;5028060;28;20032;-42
2022/12/14 07:31:16;;;;;;;27.63;15.32;;;-1.20;99.90;;;;;;5030280;28;20025;-44
2022/12/14 07:33:43;;;;;;;27.48;15.20;;;-1.20;99.90;;;;;;5029833;28;20029;-43
2022/12/14 07:36:11;;;;;;;27.30;14.90;;;-1.30;99.90;;;;;;5030506;28;20061;-41
2022/12/14 07:38:39;;;;;;;28.83;14.63;;;-1.40;99.90;;;;;;5030678;28;20052;-40
2022/12/14 07:41:11;;;;;;;31.17;15.55;;;-1.40;99.90;;;;;;5034670;28;20262;-40
2022/12/14 07:43:38;;;;;;;30.08;15.60;;;-1.40;99.90;;;;;;5033439;28;20024;-42
2022/12/14 07:46:07;;;;;;;30.17;15.00;;;-1.50;99.90;;;;;;5032653;28;20551;-44
2022/12/14 07:48:33;;;;;;;32.47;16.70;;;-1.50;99.90;;;;;;5032449;28;20474;-40
2022/12/14 07:51:10;;;;;;;30.45;15.73;;;-1.50;99.90;;;;;;5028677;28;20022;-41
2022/12/14 07:53:37;;;;;;;26.63;15.10;;;-1.50;99.90;;;;;;5032555;28;20060;-43
2022/12/14 07:56:06;;;;;;;23.63;14.40;;;-1.50;99.90;;;;;;5034269;28;20021;-42
2022/12/14 07:58:33;;;;;;;23.58;13.70;;;-1.60;99.90;;;;;;5034341;28;20034;-48
2022/12/14 08:01:09;;;;;;;25.63;14.30;;;-1.60;99.90;;;;;;5034297;28;20025;-39
2022/12/14 08:03:35;;;;;;;27.65;15.32;;;-1.70;99.90;;;;;;5030666;28;20381;-42
2022/12/14 08:06:06;;;;;;;31.05;15.40;;;-1.70;99.90;;;;;;5031668;28;20100;-39
2022/12/14 08:08:32;;;;;;;34.72;19.00;;;-1.70;99.90;;;;;;5033579;28;20049;-44
2022/12/14 08:10:58;;;;;;;30.08;15.82;;;-1.70;99.90;;;;;;5033680;28;20053;-44
2022/12/14 08:13:23;;;;;;;27.98;14.77;;;-1.70;99.90;;;;;;5033076;28;20021;-40
2022/12/14 08:15:49;;;;;;;28.67;14.18;;;-1.60;99.90;;;;;;5033752;28;20073;-42
2022/12/14 08:18:15;;;;;;;30.05;15.88;;;-1.50;99.90;;;;;;5033831;28;20025;-51
2022/12/14 08:20:40;;;;;;;32.35;18.13;;;-1.40;99.90;;;;;;5034097;28;20028;-48
2022/12/14 08:23:06;;;;;;;35.13;17.55;;;-1.40;99.90;;;;;;5033830;28;20033;-46
2022/12/14 08:25:32;;;;;;;42.72;18.58;;;-1.30;99.90;;;;;;5022480;28;20033;-54
2022/12/14 08:27:57;;;;;;;38.65;17.65;;;-1.20;99.90;;;;;;5033749;28;20033;-52
2022/12/14 08:30:23;;;;;;;42.05;18.83;;;-1.00;99.90;;;;;;5033365;28;20032;-47
2022/12/14 08:32:49;;;;;;;47.90;20.58;;;-1.00;99.90;;;;;;5033931;28;20105;-48
2022/12/14 08:35:14;;;;;;;40.50;18.10;;;-0.80;99.90;;;;;;5019418;28;20384;-54
2022/12/14 08:37:40;;;;;;;35.75;17.83;;;-0.40;99.90;;;;;;5033859;28;20040;-45
2022/12/14 08:40:06;;;;;;;34.20;15.98;;;0.20;99.90;;;;;;5033902;28;20036;-44
2022/12/14 08:42:32;;;;;;;25.77;13.38;;;0.90;99.90;;;;;;5033573;28;20036;-39
2022/12/14 08:44:58;;;;;;;26.05;14.43;;;1.60;99.90;;;;;;5031733;28;20018;-43
2022/12/14 08:47:23;;;;;;;27.20;14.52;;;2.40;99.90;;;;;;5033136;28;20112;-42
2022/12/14 08:49:49;;;;;;;20.73;12.68;;;3.40;99.90;;;;;;5033523;28;20026;-41
2022/12/14 08:52:15;;;;;;;20.10;11.32;;;4.20;99.90;;;;;;5033338;28;20014;-40
2022/12/14 08:54:41;;;;;;;19.35;10.98;;;4.40;99.90;;;;;;5032019;28;20332;-42
2022/12/14 08:57:06;;;;;;;20.75;11.25;;;3.70;99.90;;;;;;5033112;28;20399;-46
2022/12/14 08:59:32;;;;;;;21.48;12.38;;;3.30;99.90;;;;;;5033401;28;20099;-41
2022/12/14 09:01:57;;;;;;;20.30;12.27;;;2.80;99.90;;;;;;5032166;28;20083;-43
2022/12/14 09:04:23;;;;;;;21.05;11.32;;;2.30;99.90;;;;;;5029797;28;20021;-40
2022/12/14 09:06:50;;;;;;;25.27;13.13;;;1.90;99.90;;;;;;5032939;28;20407;-46
2022/12/14 09:09:15;;;;;;;22.90;12.82;;;1.80;99.90;;;;;;5033034;28;20500;-47
2022/12/14 09:11:42;;;;;;;21.65;12.60;;;1.60;99.90;;;;;;5033316;28;20029;-49
2022/12/14 09:14:07;;;;;;;24.17;13.05;;;1.40;99.90;;;;;;5031568;28;20459;-39
2022/12/14 09:16:33;;;;;;;24.90;13.98;;;1.40;99.90;;;;;;5032944;28;20101;-41
2022/12/14 09:18:58;;;;;;;25.60;13.52;;;1.20;99.90;;;;;;5033118;28;20026;-50
2022/12/14 09:21:24;;;;;;;24.20;12.52;;;1.20;99.90;;;;;;5033011;28;20169;-50
2022/12/14 09:23:51;;;;;;;26.85;13.20;;;1.20;99.90;;;;;;5029280;28;20380;-41
2022/12/14 09:26:21;;;;;;;25.10;13.10;;;1.20;99.90;;;;;;5027047;28;20060;-46
2022/12/14 09:28:50;;;;;;;25.25;12.00;;;1.10;99.90;;;;;;5019392;28;20033;-38
2022/12/14 09:31:17;;;;;;;23.17;11.73;;;1.10;99.90;;;;;;5032756;28;20080;-42
2022/12/14 09:33:43;;;;;;;28.17;13.57;;;1.10;99.90;;;;;;5030017;28;20153;-45
2022/12/14 09:36:20;;;;;;;27.60;13.85;;;1.10;99.90;;;;;;5024130;28;20113;-39
2022/12/14 09:38:46;;;;;;;24.45;12.18;;;1.10;99.90;;;;;;5031825;28;20109;-41
2022/12/14 09:41:21;;;;;;;25.05;12.70;;;1.20;99.90;;;;;;5035974;28;20113;-42
2022/12/14 09:43:58;;;;;;;23.58;12.48;;;1.30;99.90;;;;;;5029423;28;20049;-39
2022/12/14 09:46:33;;;;;;;27.95;13.15;;;1.30;99.90;;;;;;5024422;28;20025;-43
2022/12/14 09:49:01;;;;;;;24.52;13.63;;;1.30;99.90;;;;;;5032338;28;20033;-39
2022/12/14 09:51:33;;;;;;;22.05;12.68;;;1.40;99.90;;;;;;5032385;28;20031;-39
2022/12/14 09:54:07;;;;;;;26.90;13.55;;;1.60;99.90;;;;;;5031920;28;20514;-39
2022/12/14 09:56:35;;;;;;;32.05;14.60;;;1.70;99.90;;;;;;5029232;28;20694;-39
2022/12/14 09:59:02;;;;;;;26.67;13.77;;;1.80;99.90;;;;;;5029834;28;20021;-38
2022/12/14 10:01:52;;;;;;;31.38;15.38;;;1.90;99.90;;;;;;5031920;28;20087;-51
2022/12/14 10:04:42;;;;;;;27.10;13.50;;;2.10;99.90;;;;;;5031262;28;20476;-40
2022/12/14 10:07:17;;;;;;;29.08;13.50;;;2.10;99.90;;;;;;5026248;28;20049;-39
2022/12/14 10:09:57;;;;;;;26.27;14.32;;;2.20;99.90;;;;;;5031805;28;20046;-40
2022/12/14 10:12:44;;;;;;;29.35;13.68;;;2.40;99.90;;;;;;5031771;28;20026;-44
2022/12/14 10:15:18;;;;;;;24.63;12.60;;;3.00;99.90;;;;;;5030919;28;20543;-42
2022/12/14 10:18:08;;;;;;;22.83;12.40;;;3.90;99.90;;;;;;5031672;28;20031;-40
2022/12/14 10:20:47;;;;;;;;;;;4.80;99.90;;;;;;5021189;28;20034;-39
2022/12/14 10:23:19;;;;;;;25.87;12.77;;;4.80;99.90;;;;;;5031964;28;19959;-43
2022/12/14 10:25:50;;;;;;;23.05;11.93;;;4.50;99.90;;;;;;5020218;28;20022;-39
2022/12/14 10:28:20;;;;;;;22.17;11.65;;;4.40;99.90;;;;;;5028058;28;20099;-39
2022/12/14 10:30:49;;;;;;;25.67;12.82;;;4.20;99.90;;;;;;5028254;28;20025;-39
2022/12/14 10:33:28;;;;;;;26.55;13.18;;;4.30;99.90;;;;;;5030421;28;20039;-39
2022/12/14 10:36:11;;;;;;;20.25;11.63;;;5.50;99.90;;;;;;5025736;28;20105;-42
2022/12/14 10:39:05;;;;;;;22.50;11.88;;;7.10;99.90;;;;;;5018815;28;20115;-42
2022/12/14 10:41:50;;;;;;;18.45;10.40;;;8.30;97.90;;;;;;5030773;28;20025;-42
2022/12/14 10:44:29;;;;;;;21.40;11.60;;;9.40;96.50;;;;;;5029365;28;20341;-40
2022/12/14 10:47:14;;;;;;;21.15;12.10;;;10.00;93.50;;;;;;5025180;28;20087;-40
2022/12/14 10:50:17;;;;;;;18.50;10.95;;;10.60;91.20;;;;;;5030203;28;20067;-39
2022/12/14 10:52:46;;;;;;;18.27;11.60;;;10.80;89.30;;;;;;5010959;28;20054;-39
2022/12/14 10:55:19;;;;;;;20.00;12.35;;;11.00;87.30;;;;;;5029420;28;20057;-46
2022/12/14 10:57:44;;;;;;;20.08;12.10;;;11.10;86.90;;;;;;5030985;28;20508;-40
2022/12/14 11:00:15;;;;;;;19.73;11.80;;;11.30;85.40;;;;;;5031007;28;20099;-40
2022/12/14 11:02:52;;;;;;;20.05;11.25;;;12.00;83.60;;;;;;5031026;28;20056;-47
2022/12/14 11:05:48;;;;;;;18.30;11.48;;;12.90;80.30;;;;;;5023997;28;20026;-41
2022/12/14 11:08:52;;;;;;;19.17;11.90;;;13.80;75.80;;;;;;5025925;28;20059;-48
2022/12/14 11:11:22;;;;;;;18.23;12.27;;;13.70;71.40;;;;;;5030805;28;20052;-42
2022/12/14 11:13:53;;;;;;;20.20;12.02;;;13.50;72.10;;;;;;5028079;28;20056;-43
2022/12/14 11:16:33;;;;;;;19.90;11.95;;;12.90;70.70;;;;;;5025617;28;20495;-49
2022/12/14 11:19:00;;;;;;;21.52;12.25;;;13.10;71.10;;;;;;5029937;28;20033;-47
2022/12/14 11:21:45;;;;;;;22.10;12.82;;;14.20;70.20;;;;;;5030718;28;20021;-43
2022/12/14 11:24:27;;;;;;;18.55;11.57;;;14.30;67.50;;;;;;5030890;28;20226;-47
2022/12/14 11:26:57;;;;;;;19.30;11.80;;;14.60;65.90;;;;;;5029252;28;20026;-42
2022/12/14 11:29:34;;;;;;;16.63;11.55;;;14.60;67.80;;;;;;5029936;28;20021;-46
2022/12/14 11:32:00;;;;;;;18.77;11.57;;;15.40;63.90;;;;;;5025964;28;20022;-42
2022/12/14 11:34:37;;;;;;;18.75;11.82;;;14.80;63.20;;;;;;5029166;28;20041;-49
2022/12/14 11:37:30;;;;;;;15.90;11.13;;;15.10;65.90;;;;;;5030748;28;20057;-47
2022/12/14 11:40:02;;;;;;;17.80;11.02;;;15.40;65.10;;;;;;5023791;28;20030;-49
2022/12/14 11:42:29;;;;;;;18.10;11.63;;;15.70;63.40;;;;;;5030558;28;20030;-49
2022/12/14 11:45:26;;;;;;;19.10;11.98;;;15.90;60.60;;;;;;5028738;28;20052;-44
2022/12/14 11:48:13;;;;;;;17.52;10.80;;;16.00;60.20;;;;;;5030642;28;20060;-46
2022/12/14 11:50:39;;;;;;;16.75;11.45;;;15.60;61.80;;;;;;5027690;28;20109;-45
2022/12/14 11:53:10;;;;;;;16.08;10.70;;;15.80;60.90;;;;;;5027452;28;20425;-46
2022/12/14 11:55:39;;;;;;;17.73;11.07;;;16.20;59.30;;;;;;5022052;28;20052;-46
2022/12/14 11:58:11;;;;;;;18.17;11.20;;;16.30;58.70;;;;;;5029682;28;20017;-46
2022/12/14 12:00:48;;;;;;;17.10;11.07;;;16.50;60.20;;;;;;5030492;28;20763;-43
2022/12/14 12:03:18;;;;;;;18.98;11.15;;;16.30;59.80;;;;;;5027173;28;20116;-45
2022/12/14 12:05:45;;;;;;;15.85;10.85;;;16.00;58.40;;;;;;5029304;28;20128;-44
2022/12/14 12:08:37;;;;;;;16.25;11.07;;;15.30;61.60;;;;;;5026053;28;20057;-42
2022/12/14 12:11:14;;;;;;;16.45;10.45;;;14.70;61.10;;;;;;5027713;28;20240;-43
2022/12/14 12:13:43;;;;;;;16.73;11.20;;;14.40;62.50;;;;;;5029992;28;20029;-45
2022/12/14 12:16:09;;;;;;;17.05;10.98;;;14.40;63.90;;;;;;5026118;28;20107;-45
2022/12/14 12:18:53;;;;;;;16.83;10.27;;;14.10;62.80;;;;;;5026508;28;20060;-43
2022/12/14 12:21:28;;;;;;;16.40;10.02;;;14.70;63.00;;;;;;5029629;28;20017;-41
2022/12/14 12:24:03;;;;;;;17.70;10.18;;;14.80;60.50;;;;;;5018433;28;20030;-44
2022/12/14 12:26:34;;;;;;;18.10;10.48;;;14.30;62.30;;;;;;5029353;28;20080;-45
2022/12/14 12:29:32;;;;;;;15.88;9.93;;;13.00;62.60;;;;;;5028873;28;20034;-44
2022/12/14 12:32:06;;;;;;;18.42;10.88;;;11.70;66.40;;;;;;5006946;28;20037;-40
2022/12/14 12:34:45;;;;;;;17.20;10.45;;;11.30;69.10;;;;;;5026769;28;20084;-40
2022/12/14 12:37:17;;;;;;;19.48;10.85;;;10.90;70.00;;;;;;5030838;28;20029;-41
2022/12/14 12:39:50;;;;;;;18.80;11.32;;;10.80;70.80;;;;;;5035067;28;20116;-39
2022/12/14 12:42:34;;;;;;;21.00;11.55;;;9.70;71.90;;;;;;5035070;28;20025;-41
2022/12/14 12:45:18;;;;;;;18.13;10.40;;;9.70;74.00;;;;;;5032820;28;20033;-41
2022/12/14 12:47:51;;;;;;;16.45;9.45;;;9.60;75.10;;;;;;5050213;28;20083;-41
2022/12/14 12:50:21;;;;;;;20.17;10.07;;;10.00;74.00;;;;;;5030154;28;21422;-42
2022/12/14 12:53:08;;;;;;;18.60;10.82;;;10.70;71.20;;;;;;5030579;28;20550;-43
2022/12/14 12:55:41;;;;;;;17.15;9.95;;;10.90;70.80;;;;;;5032554;28;20500;-42
2022/12/14 12:58:16;;;;;;;16.38;9.63;;;11.90;70.30;;;;;;5032334;28;20121;-42
2022/12/14 13:00:44;;;;;;;16.55;8.85;;;12.20;68.40;;;;;;5036033;28;20409;-43
2022/12/14 13:03:24;;;;;;;17.42;9.27;;;11.60;69.10;;;;;;5023144;28;20029;-42
2022/12/14 13:05:53;;;;;;;14.93;8.48;;;11.90;66.60;;;;;;5027725;28;20041;-41
2022/12/14 13:08:29;;;;;;;17.73;8.77;;;12.90;67.30;;;;;;5024568;28;20391;-46
2022/12/14 13:10:59;;;;;;;16.85;9.07;;;13.60;64.20;;;;;;5032651;28;20432;-43
2022/12/14 13:13:33;;;;;;;14.70;8.48;;;14.10;62.80;;;;;;5031739;28;20017;-46